sensor_id;sensor_type;location;lat;lon;timestamp;P1;durP1;ratioP1;P2;durP2;ratioP2
20476;SDS011;10397;50.948;11.092;2023-04-28T00:00:00;6.47;;;4.42;;
20476;SDS011;10397;50.948;11.092;2023-04-28T00:02:30;9.50;;;5.63;;
20476;SDS011;10397;50.948;11.092;2023-04-28T00:05:04;7.80;;;4.75;;
20476;SDS011;10397;50.948;11.092;2023-04-28T00:07:31;7.97;;;5.10;;
20476;SDS011;10397;50.948;11.092;2023-04-28T00:10:03;7.30;;;4.60;;
20476;SDS011;10397;50.948;11.092;2023-04-28T00:12:34;7.57;;;5.27;;
20476;SDS011;10397;50.948;11.092;2023-04-28T00:15:05;8.00;;;5.05;;
20476;SDS011;10397;50.948;11.092;2023-04-28T00:17:35;8.13;;;4.73;;
20476;SDS011;10397;50.948;11.092;2023-04-28T00:20:06;5.07;;;4.67;;
20476;SDS011;10397;50.948;11.092;2023-04-28T00:22:37;5.83;;;5.22;;
20476;SDS011;10397;50.948;11.092;2023-04-28T00:25:09;6.17;;;5.30;;
20476;SDS011;10397;50.948;11.092;2023-04-28T00:27:40;10.95;;;5.72;;
20476;SDS011;10397;50.948;11.092;2023-04-28T00:30:12;9.30;;;5.15;;
20476;SDS011;10397;50.948;11.092;2023-04-28T00:32:42;12.93;;;5.70;;
20476;SDS011;10397;50.948;11.092;2023-04-28T00:35:13;7.37;;;5.20;;
20476;SDS011;10397;50.948;11.092;2023-04-28T00:37:45;10.30;;;6.05;;
20476;SDS011;10397;50.948;11.092;2023-04-28T00:40:17;9.15;;;6.28;;
20476;SDS011;10397;50.948;11.092;2023-04-28T00:42:48;5.75;;;4.83;;
20476;SDS011;10397;50.948;11.092;2023-04-28T00:45:19;6.63;;;5.43;;
20476;SDS011;10397;50.948;11.092;2023-04-28T00:47:50;7.45;;;5.33;;
20476;SDS011;10397;50.948;11.092;2023-04-28T00:50:20;8.87;;;5.37;;
20476;SDS011;10397;50.948;11.092;2023-04-28T00:52:51;8.85;;;5.70;;
20476;SDS011;10397;50.948;11.092;2023-04-28T00:55:21;7.77;;;5.33;;
20476;SDS011;10397;50.948;11.092;2023-04-28T00:57:54;6.03;;;5.30;;
20476;SDS011;10397;50.948;11.092;2023-04-28T01:00:23;7.30;;;5.67;;
20476;SDS011;10397;50.948;11.092;2023-04-28T01:02:54;6.35;;;5.22;;
20476;SDS011;10397;50.948;11.092;2023-04-28T01:05:24;7.10;;;5.67;;
20476;SDS011;10397;50.948;11.092;2023-04-28T01:08:01;7.43;;;5.63;;
20476;SDS011;10397;50.948;11.092;2023-04-28T01:10:31;7.05;;;4.95;;
20476;SDS011;10397;50.948;11.092;2023-04-28T01:13:02;7.20;;;5.47;;
20476;SDS011;10397;50.948;11.092;2023-04-28T01:15:32;7.33;;;5.40;;
20476;SDS011;10397;50.948;11.092;2023-04-28T01:18:03;7.55;;;5.60;;
20476;SDS011;10397;50.948;11.092;2023-04-28T01:20:34;9.90;;;6.10;;
20476;SDS011;10397;50.948;11.092;2023-04-28T01:23:04;7.93;;;5.87;;
20476;SDS011;10397;50.948;11.092;2023-04-28T01:25:35;11.27;;;5.40;;
20476;SDS011;10397;50.948;11.092;2023-04-28T01:28:06;9.08;;;6.47;;
20476;SDS011;10397;50.948;11.092;2023-04-28T01:30:39;8.27;;;7.00;;
20476;SDS011;10397;50.948;11.092;2023-04-28T01:33:09;6.20;;;5.43;;
20476;SDS011;10397;50.948;11.092;2023-04-28T01:35:40;9.35;;;6.00;;
20476;SDS011;10397;50.948;11.092;2023-04-28T01:38:11;7.00;;;6.20;;
20476;SDS011;10397;50.948;11.092;2023-04-28T01:40:42;7.37;;;6.10;;
20476;SDS011;10397;50.948;11.092;2023-04-28T01:43:14;8.78;;;6.80;;
20476;SDS011;10397;50.948;11.092;2023-04-28T01:45:45;9.67;;;6.97;;
20476;SDS011;10397;50.948;11.092;2023-04-28T01:48:16;7.20;;;6.50;;
20476;SDS011;10397;50.948;11.092;2023-04-28T01:50:48;13.20;;;6.40;;
20476;SDS011;10397;50.948;11.092;2023-04-28T01:53:19;9.48;;;6.03;;
20476;SDS011;10397;50.948;11.092;2023-04-28T01:55:50;9.80;;;6.87;;
20476;SDS011;10397;50.948;11.092;2023-04-28T01:58:21;10.47;;;6.53;;
20476;SDS011;10397;50.948;11.092;2023-04-28T02:00:52;6.87;;;6.17;;
20476;SDS011;10397;50.948;11.092;2023-04-28T02:03:23;13.00;;;6.33;;
20476;SDS011;10397;50.948;11.092;2023-04-28T02:05:54;11.12;;;5.83;;
20476;SDS011;10397;50.948;11.092;2023-04-28T02:08:25;10.08;;;7.03;;
20476;SDS011;10397;50.948;11.092;2023-04-28T02:10:56;9.37;;;7.53;;
20476;SDS011;10397;50.948;11.092;2023-04-28T02:13:27;10.65;;;7.70;;
20476;SDS011;10397;50.948;11.092;2023-04-28T02:15:59;10.90;;;7.60;;
20476;SDS011;10397;50.948;11.092;2023-04-28T02:18:30;8.43;;;6.65;;
20476;SDS011;10397;50.948;11.092;2023-04-28T02:21:11;7.37;;;6.60;;
20476;SDS011;10397;50.948;11.092;2023-04-28T02:23:37;11.13;;;6.97;;
20476;SDS011;10397;50.948;11.092;2023-04-28T02:26:08;8.23;;;6.53;;
20476;SDS011;10397;50.948;11.092;2023-04-28T02:28:40;8.18;;;7.12;;
20476;SDS011;10397;50.948;11.092;2023-04-28T02:31:11;8.48;;;6.45;;
20476;SDS011;10397;50.948;11.092;2023-04-28T02:33:43;8.73;;;7.62;;
20476;SDS011;10397;50.948;11.092;2023-04-28T02:36:14;9.90;;;7.15;;
20476;SDS011;10397;50.948;11.092;2023-04-28T02:38:45;7.60;;;6.67;;
20476;SDS011;10397;50.948;11.092;2023-04-28T02:41:17;11.75;;;7.15;;
20476;SDS011;10397;50.948;11.092;2023-04-28T02:43:48;9.20;;;6.50;;
20476;SDS011;10397;50.948;11.092;2023-04-28T02:46:19;9.83;;;7.15;;
20476;SDS011;10397;50.948;11.092;2023-04-28T02:48:50;13.00;;;7.70;;
20476;SDS011;10397;50.948;11.092;2023-04-28T02:51:21;10.18;;;7.28;;
20476;SDS011;10397;50.948;11.092;2023-04-28T02:53:52;8.25;;;7.33;;
20476;SDS011;10397;50.948;11.092;2023-04-28T02:56:23;9.97;;;7.40;;
20476;SDS011;10397;50.948;11.092;2023-04-28T02:58:54;11.18;;;7.22;;
20476;SDS011;10397;50.948;11.092;2023-04-28T03:01:26;10.23;;;6.90;;
20476;SDS011;10397;50.948;11.092;2023-04-28T03:03:57;7.97;;;6.63;;
20476;SDS011;10397;50.948;11.092;2023-04-28T03:06:28;15.43;;;7.63;;
20476;SDS011;10397;50.948;11.092;2023-04-28T03:08:59;12.93;;;7.03;;
20476;SDS011;10397;50.948;11.092;2023-04-28T03:11:31;10.38;;;7.85;;
20476;SDS011;10397;50.948;11.092;2023-04-28T03:14:02;10.85;;;7.90;;
20476;SDS011;10397;50.948;11.092;2023-04-28T03:16:33;9.28;;;7.60;;
20476;SDS011;10397;50.948;11.092;2023-04-28T03:19:04;8.55;;;7.72;;
20476;SDS011;10397;50.948;11.092;2023-04-28T03:21:35;12.47;;;7.90;;
20476;SDS011;10397;50.948;11.092;2023-04-28T03:24:06;13.40;;;8.78;;
20476;SDS011;10397;50.948;11.092;2023-04-28T03:26:36;11.07;;;8.17;;
20476;SDS011;10397;50.948;11.092;2023-04-28T03:29:08;14.13;;;7.70;;
20476;SDS011;10397;50.948;11.092;2023-04-28T03:31:40;12.05;;;8.08;;
20476;SDS011;10397;50.948;11.092;2023-04-28T03:34:12;12.20;;;7.60;;
20476;SDS011;10397;50.948;11.092;2023-04-28T03:36:43;12.23;;;7.90;;
20476;SDS011;10397;50.948;11.092;2023-04-28T03:39:14;11.50;;;8.68;;
20476;SDS011;10397;50.948;11.092;2023-04-28T03:41:46;9.85;;;8.83;;
20476;SDS011;10397;50.948;11.092;2023-04-28T03:44:17;8.43;;;7.70;;
20476;SDS011;10397;50.948;11.092;2023-04-28T03:46:48;11.93;;;8.80;;
20476;SDS011;10397;50.948;11.092;2023-04-28T03:49:20;14.85;;;9.08;;
20476;SDS011;10397;50.948;11.092;2023-04-28T03:51:51;9.20;;;7.97;;
20476;SDS011;10397;50.948;11.092;2023-04-28T03:54:22;13.63;;;8.93;;
20476;SDS011;10397;50.948;11.092;2023-04-28T03:56:53;9.93;;;7.57;;
20476;SDS011;10397;50.948;11.092;2023-04-28T03:59:24;12.37;;;8.50;;
20476;SDS011;10397;50.948;11.092;2023-04-28T04:01:55;11.73;;;8.90;;
20476;SDS011;10397;50.948;11.092;2023-04-28T04:04:27;10.95;;;7.37;;
20476;SDS011;10397;50.948;11.092;2023-04-28T04:06:59;11.63;;;7.85;;
20476;SDS011;10397;50.948;11.092;2023-04-28T04:09:30;16.35;;;7.58;;
20476;SDS011;10397;50.948;11.092;2023-04-28T04:12:02;8.93;;;8.00;;
20476;SDS011;10397;50.948;11.092;2023-04-28T04:14:32;12.87;;;9.07;;
20476;SDS011;10397;50.948;11.092;2023-04-28T04:17:03;14.27;;;8.33;;
20476;SDS011;10397;50.948;11.092;2023-04-28T04:19:34;8.23;;;7.42;;
20476;SDS011;10397;50.948;11.092;2023-04-28T04:22:06;8.53;;;7.58;;
20476;SDS011;10397;50.948;11.092;2023-04-28T04:24:38;11.65;;;8.48;;
20476;SDS011;10397;50.948;11.092;2023-04-28T04:27:09;13.03;;;7.87;;
20476;SDS011;10397;50.948;11.092;2023-04-28T04:29:40;8.98;;;8.10;;
20476;SDS011;10397;50.948;11.092;2023-04-28T04:32:11;11.83;;;8.83;;
20476;SDS011;10397;50.948;11.092;2023-04-28T04:34:42;10.05;;;9.05;;
20476;SDS011;10397;50.948;11.092;2023-04-28T04:37:14;9.18;;;8.00;;
20476;SDS011;10397;50.948;11.092;2023-04-28T04:39:45;9.50;;;8.50;;
20476;SDS011;10397;50.948;11.092;2023-04-28T04:42:17;15.05;;;10.10;;
20476;SDS011;10397;50.948;11.092;2023-04-28T04:44:48;10.03;;;9.03;;
20476;SDS011;10397;50.948;11.092;2023-04-28T04:47:19;10.67;;;8.20;;
20476;SDS011;10397;50.948;11.092;2023-04-28T04:49:51;17.65;;;9.38;;
20476;SDS011;10397;50.948;11.092;2023-04-28T04:52:21;13.90;;;9.85;;
20476;SDS011;10397;50.948;11.092;2023-04-28T04:54:52;11.12;;;8.78;;
20476;SDS011;10397;50.948;11.092;2023-04-28T04:57:24;10.23;;;8.48;;
20476;SDS011;10397;50.948;11.092;2023-04-28T04:59:55;13.32;;;10.00;;
20476;SDS011;10397;50.948;11.092;2023-04-28T05:02:27;12.23;;;9.95;;
20476;SDS011;10397;50.948;11.092;2023-04-28T05:04:59;10.72;;;9.60;;
20476;SDS011;10397;50.948;11.092;2023-04-28T05:07:31;12.07;;;9.08;;
20476;SDS011;10397;50.948;11.092;2023-04-28T05:10:02;18.27;;;9.58;;
20476;SDS011;10397;50.948;11.092;2023-04-28T05:12:32;10.07;;;8.53;;
20476;SDS011;10397;50.948;11.092;2023-04-28T05:15:04;9.70;;;8.15;;
20476;SDS011;10397;50.948;11.092;2023-04-28T05:17:34;11.67;;;9.10;;
20476;SDS011;10397;50.948;11.092;2023-04-28T05:20:05;13.45;;;9.68;;
20476;SDS011;10397;50.948;11.092;2023-04-28T05:22:36;12.65;;;9.60;;
20476;SDS011;10397;50.948;11.092;2023-04-28T05:25:07;13.72;;;9.53;;
20476;SDS011;10397;50.948;11.092;2023-04-28T05:27:38;11.45;;;10.35;;
20476;SDS011;10397;50.948;11.092;2023-04-28T05:30:10;15.80;;;10.45;;
20476;SDS011;10397;50.948;11.092;2023-04-28T05:32:40;16.27;;;11.13;;
20476;SDS011;10397;50.948;11.092;2023-04-28T05:35:11;14.13;;;9.47;;
20476;SDS011;10397;50.948;11.092;2023-04-28T05:37:43;18.23;;;10.48;;
20476;SDS011;10397;50.948;11.092;2023-04-28T05:40:14;14.23;;;10.80;;
20476;SDS011;10397;50.948;11.092;2023-04-28T05:42:46;15.35;;;10.43;;
20476;SDS011;10397;50.948;11.092;2023-04-28T05:45:17;18.75;;;11.35;;
20476;SDS011;10397;50.948;11.092;2023-04-28T05:47:49;11.15;;;9.78;;
20476;SDS011;10397;50.948;11.092;2023-04-28T05:50:20;21.05;;;10.82;;
20476;SDS011;10397;50.948;11.092;2023-04-28T05:52:52;13.58;;;10.65;;
20476;SDS011;10397;50.948;11.092;2023-04-28T05:55:22;14.75;;;11.40;;
20476;SDS011;10397;50.948;11.092;2023-04-28T05:57:54;16.00;;;10.32;;
20476;SDS011;10397;50.948;11.092;2023-04-28T06:00:25;16.73;;;10.88;;
20476;SDS011;10397;50.948;11.092;2023-04-28T06:02:57;16.27;;;11.90;;
20476;SDS011;10397;50.948;11.092;2023-04-28T06:05:29;14.28;;;10.48;;
20476;SDS011;10397;50.948;11.092;2023-04-28T06:08:00;19.27;;;12.58;;
20476;SDS011;10397;50.948;11.092;2023-04-28T06:10:31;18.43;;;12.73;;
20476;SDS011;10397;50.948;11.092;2023-04-28T06:13:02;12.98;;;11.28;;
20476;SDS011;10397;50.948;11.092;2023-04-28T06:15:33;15.37;;;11.13;;
20476;SDS011;10397;50.948;11.092;2023-04-28T06:18:04;16.70;;;11.47;;
20476;SDS011;10397;50.948;11.092;2023-04-28T06:20:35;15.97;;;11.87;;
20476;SDS011;10397;50.948;11.092;2023-04-28T06:23:07;13.78;;;12.05;;
20476;SDS011;10397;50.948;11.092;2023-04-28T06:25:38;19.57;;;12.40;;
20476;SDS011;10397;50.948;11.092;2023-04-28T06:28:09;14.95;;;11.03;;
20476;SDS011;10397;50.948;11.092;2023-04-28T06:30:40;15.13;;;12.15;;
20476;SDS011;10397;50.948;11.092;2023-04-28T06:33:11;14.70;;;10.45;;
20476;SDS011;10397;50.948;11.092;2023-04-28T06:35:43;14.58;;;11.12;;
20476;SDS011;10397;50.948;11.092;2023-04-28T06:38:15;16.37;;;12.05;;
20476;SDS011;10397;50.948;11.092;2023-04-28T06:40:46;19.55;;;13.13;;
20476;SDS011;10397;50.948;11.092;2023-04-28T06:43:18;17.40;;;11.75;;
20476;SDS011;10397;50.948;11.092;2023-04-28T06:45:48;13.80;;;11.77;;
20476;SDS011;10397;50.948;11.092;2023-04-28T06:48:19;17.73;;;12.13;;
20476;SDS011;10397;50.948;11.092;2023-04-28T06:50:50;16.37;;;11.78;;
20476;SDS011;10397;50.948;11.092;2023-04-28T06:53:21;17.92;;;13.65;;
20476;SDS011;10397;50.948;11.092;2023-04-28T06:55:52;15.98;;;12.73;;
20476;SDS011;10397;50.948;11.092;2023-04-28T06:58:23;22.25;;;14.10;;
20476;SDS011;10397;50.948;11.092;2023-04-28T07:00:55;14.55;;;12.33;;
20476;SDS011;10397;50.948;11.092;2023-04-28T07:03:26;17.27;;;12.47;;
20476;SDS011;10397;50.948;11.092;2023-04-28T07:05:58;16.95;;;13.30;;
20476;SDS011;10397;50.948;11.092;2023-04-28T07:08:30;14.58;;;12.88;;
20476;SDS011;10397;50.948;11.092;2023-04-28T07:11:01;20.20;;;13.43;;
20476;SDS011;10397;50.948;11.092;2023-04-28T07:13:31;14.33;;;12.80;;
20476;SDS011;10397;50.948;11.092;2023-04-28T07:16:02;18.10;;;12.98;;
20476;SDS011;10397;50.948;11.092;2023-04-28T07:18:33;16.60;;;13.30;;
20476;SDS011;10397;50.948;11.092;2023-04-28T07:21:04;14.60;;;13.10;;
20476;SDS011;10397;50.948;11.092;2023-04-28T07:23:35;19.47;;;13.43;;
20476;SDS011;10397;50.948;11.092;2023-04-28T07:26:06;19.57;;;13.83;;
20476;SDS011;10397;50.948;11.092;2023-04-28T07:28:37;18.05;;;13.25;;
20476;SDS011;10397;50.948;11.092;2023-04-28T07:31:09;18.05;;;13.95;;
20476;SDS011;10397;50.948;11.092;2023-04-28T07:33:40;17.15;;;12.93;;
20476;SDS011;10397;50.948;11.092;2023-04-28T07:36:11;16.25;;;14.10;;
20476;SDS011;10397;50.948;11.092;2023-04-28T07:38:43;17.05;;;13.95;;
20476;SDS011;10397;50.948;11.092;2023-04-28T07:41:16;15.90;;;13.68;;
20476;SDS011;10397;50.948;11.092;2023-04-28T07:43:45;14.70;;;13.03;;
20476;SDS011;10397;50.948;11.092;2023-04-28T07:46:16;20.30;;;14.70;;
20476;SDS011;10397;50.948;11.092;2023-04-28T07:48:47;18.42;;;13.38;;
20476;SDS011;10397;50.948;11.092;2023-04-28T07:51:19;19.55;;;14.83;;
20476;SDS011;10397;50.948;11.092;2023-04-28T07:53:51;17.17;;;13.83;;
20476;SDS011;10397;50.948;11.092;2023-04-28T07:56:23;16.82;;;14.90;;
20476;SDS011;10397;50.948;11.092;2023-04-28T07:58:53;18.27;;;13.97;;
20476;SDS011;10397;50.948;11.092;2023-04-28T08:01:24;19.17;;;15.63;;
20476;SDS011;10397;50.948;11.092;2023-04-28T08:03:55;19.32;;;14.03;;
20476;SDS011;10397;50.948;11.092;2023-04-28T08:06:26;16.30;;;14.47;;
20476;SDS011;10397;50.948;11.092;2023-04-28T08:08:58;19.73;;;16.62;;
20476;SDS011;10397;50.948;11.092;2023-04-28T08:11:28;19.30;;;14.53;;
20476;SDS011;10397;50.948;11.092;2023-04-28T08:13:59;19.17;;;15.83;;
20476;SDS011;10397;50.948;11.092;2023-04-28T08:16:30;20.97;;;16.07;;
20476;SDS011;10397;50.948;11.092;2023-04-28T08:19:01;23.47;;;15.80;;
20476;SDS011;10397;50.948;11.092;2023-04-28T08:21:33;19.85;;;15.80;;
20476;SDS011;10397;50.948;11.092;2023-04-28T08:24:04;16.67;;;14.98;;
20476;SDS011;10397;50.948;11.092;2023-04-28T08:26:36;16.67;;;14.97;;
20476;SDS011;10397;50.948;11.092;2023-04-28T08:29:06;17.98;;;15.15;;
20476;SDS011;10397;50.948;11.092;2023-04-28T08:31:37;18.23;;;13.62;;
20476;SDS011;10397;50.948;11.092;2023-04-28T08:34:09;21.82;;;14.73;;
20476;SDS011;10397;50.948;11.092;2023-04-28T08:36:40;18.05;;;14.00;;
20476;SDS011;10397;50.948;11.092;2023-04-28T08:39:12;18.67;;;15.08;;
20476;SDS011;10397;50.948;11.092;2023-04-28T08:41:43;16.35;;;14.75;;
20476;SDS011;10397;50.948;11.092;2023-04-28T08:44:15;19.35;;;15.48;;
20476;SDS011;10397;50.948;11.092;2023-04-28T08:46:46;20.97;;;16.17;;
20476;SDS011;10397;50.948;11.092;2023-04-28T08:49:17;18.45;;;16.55;;
20476;SDS011;10397;50.948;11.092;2023-04-28T08:51:49;20.30;;;17.65;;
20476;SDS011;10397;50.948;11.092;2023-04-28T08:54:20;17.92;;;16.02;;
20476;SDS011;10397;50.948;11.092;2023-04-28T08:56:51;18.25;;;16.00;;
20476;SDS011;10397;50.948;11.092;2023-04-28T08:59:23;19.67;;;16.40;;
20476;SDS011;10397;50.948;11.092;2023-04-28T09:01:54;19.30;;;16.48;;
20476;SDS011;10397;50.948;11.092;2023-04-28T09:04:25;24.65;;;17.42;;
20476;SDS011;10397;50.948;11.092;2023-04-28T09:06:56;18.87;;;16.90;;
20476;SDS011;10397;50.948;11.092;2023-04-28T09:09:28;19.62;;;17.50;;
20476;SDS011;10397;50.948;11.092;2023-04-28T09:11:58;24.77;;;17.73;;
20476;SDS011;10397;50.948;11.092;2023-04-28T09:14:30;24.52;;;17.52;;
20476;SDS011;10397;50.948;11.092;2023-04-28T09:17:08;22.60;;;17.07;;
20476;SDS011;10397;50.948;11.092;2023-04-28T09:19:33;25.25;;;18.55;;
20476;SDS011;10397;50.948;11.092;2023-04-28T09:22:04;25.70;;;16.87;;
20476;SDS011;10397;50.948;11.092;2023-04-28T09:24:38;18.52;;;16.70;;
20476;SDS011;10397;50.948;11.092;2023-04-28T09:27:06;18.92;;;15.83;;
20476;SDS011;10397;50.948;11.092;2023-04-28T09:29:36;19.60;;;17.25;;
20476;SDS011;10397;50.948;11.092;2023-04-28T09:32:14;21.33;;;17.67;;
20476;SDS011;10397;50.948;11.092;2023-04-28T09:34:47;24.73;;;18.07;;
20476;SDS011;10397;50.948;11.092;2023-04-28T09:37:20;23.25;;;18.70;;
20476;SDS011;10397;50.948;11.092;2023-04-28T09:39:48;22.33;;;16.33;;
20476;SDS011;10397;50.948;11.092;2023-04-28T09:45:12;19.40;;;17.53;;
20476;SDS011;10397;50.948;11.092;2023-04-28T09:47:43;21.80;;;18.65;;
20476;SDS011;10397;50.948;11.092;2023-04-28T09:50:13;25.77;;;18.90;;
20476;SDS011;10397;50.948;11.092;2023-04-28T09:52:44;20.77;;;18.50;;
20476;SDS011;10397;50.948;11.092;2023-04-28T09:55:14;22.80;;;18.10;;
20476;SDS011;10397;50.948;11.092;2023-04-28T09:57:45;15.03;;;12.78;;
20476;SDS011;10397;50.948;11.092;2023-04-28T10:00:16;18.17;;;13.13;;
20476;SDS011;10397;50.948;11.092;2023-04-28T10:02:47;9.10;;;8.30;;
20476;SDS011;10397;50.948;11.092;2023-04-28T10:05:18;7.92;;;7.12;;
20476;SDS011;10397;50.948;11.092;2023-04-28T10:07:49;7.05;;;6.35;;
20476;SDS011;10397;50.948;11.092;2023-04-28T10:10:20;10.55;;;5.60;;
20476;SDS011;10397;50.948;11.092;2023-04-28T10:12:52;8.63;;;5.35;;
20476;SDS011;10397;50.948;11.092;2023-04-28T10:15:23;7.60;;;5.85;;
20476;SDS011;10397;50.948;11.092;2023-04-28T10:17:55;5.90;;;4.47;;
20476;SDS011;10397;50.948;11.092;2023-04-28T10:20:27;7.40;;;4.60;;
20476;SDS011;10397;50.948;11.092;2023-04-28T10:23:16;7.67;;;4.80;;
20476;SDS011;10397;50.948;11.092;2023-04-28T10:25:48;6.87;;;5.70;;
20476;SDS011;10397;50.948;11.092;2023-04-28T10:28:19;6.25;;;5.03;;
20476;SDS011;10397;50.948;11.092;2023-04-28T10:33:42;5.43;;;4.93;;
20476;SDS011;10397;50.948;11.092;2023-04-28T10:39:20;5.77;;;5.20;;
20476;SDS011;10397;50.948;11.092;2023-04-28T10:41:51;8.17;;;5.50;;
20476;SDS011;10397;50.948;11.092;2023-04-28T10:44:44;6.87;;;5.03;;
20476;SDS011;10397;50.948;11.092;2023-04-28T10:47:04;4.97;;;4.33;;
20476;SDS011;10397;50.948;11.092;2023-04-28T11:00:50;6.17;;;5.10;;
20476;SDS011;10397;50.948;11.092;2023-04-28T11:06:26;7.03;;;5.00;;
20476;SDS011;10397;50.948;11.092;2023-04-28T11:08:57;9.87;;;5.67;;
20476;SDS011;10397;50.948;11.092;2023-04-28T11:11:33;7.05;;;5.12;;
20476;SDS011;10397;50.948;11.092;2023-04-28T11:16:53;9.47;;;5.87;;
20476;SDS011;10397;50.948;11.092;2023-04-28T11:19:29;7.73;;;6.10;;
20476;SDS011;10397;50.948;11.092;2023-04-28T11:21:57;8.05;;;5.40;;
20476;SDS011;10397;50.948;11.092;2023-04-28T11:24:28;9.68;;;5.08;;
20476;SDS011;10397;50.948;11.092;2023-04-28T11:26:58;5.03;;;4.27;;
20476;SDS011;10397;50.948;11.092;2023-04-28T11:29:32;5.53;;;4.42;;
20476;SDS011;10397;50.948;11.092;2023-04-28T11:32:08;5.40;;;4.90;;
20476;SDS011;10397;50.948;11.092;2023-04-28T11:34:35;4.73;;;4.23;;
20476;SDS011;10397;50.948;11.092;2023-04-28T11:37:06;5.35;;;4.83;;
20476;SDS011;10397;50.948;11.092;2023-04-28T11:39:37;4.80;;;4.40;;
20476;SDS011;10397;50.948;11.092;2023-04-28T11:42:09;6.35;;;4.85;;
20476;SDS011;10397;50.948;11.092;2023-04-28T11:44:39;4.70;;;4.30;;
20476;SDS011;10397;50.948;11.092;2023-04-28T11:47:11;5.67;;;5.15;;
20476;SDS011;10397;50.948;11.092;2023-04-28T11:49:43;4.22;;;3.83;;
20476;SDS011;10397;50.948;11.092;2023-04-28T11:52:13;5.30;;;3.93;;
20476;SDS011;10397;50.948;11.092;2023-04-28T11:54:44;3.55;;;3.25;;
20476;SDS011;10397;50.948;11.092;2023-04-28T11:57:16;3.33;;;3.03;;
20476;SDS011;10397;50.948;11.092;2023-04-28T11:59:49;3.10;;;2.80;;
20476;SDS011;10397;50.948;11.092;2023-04-28T12:02:23;6.27;;;3.23;;
20476;SDS011;10397;50.948;11.092;2023-04-28T12:05:04;5.97;;;3.83;;
20476;SDS011;10397;50.948;11.092;2023-04-28T12:07:30;3.45;;;3.02;;
20476;SDS011;10397;50.948;11.092;2023-04-28T12:10:10;3.90;;;3.37;;
20476;SDS011;10397;50.948;11.092;2023-04-28T12:12:43;3.93;;;3.63;;
20476;SDS011;10397;50.948;11.092;2023-04-28T12:15:14;6.08;;;5.03;;
20476;SDS011;10397;50.948;11.092;2023-04-28T12:17:45;4.37;;;3.98;;
20476;SDS011;10397;50.948;11.092;2023-04-28T12:20:32;4.20;;;3.80;;
20476;SDS011;10397;50.948;11.092;2023-04-28T12:23:02;3.33;;;3.03;;
20476;SDS011;10397;50.948;11.092;2023-04-28T12:25:41;4.00;;;3.60;;
20476;SDS011;10397;50.948;11.092;2023-04-28T12:28:05;5.97;;;4.07;;
20476;SDS011;10397;50.948;11.092;2023-04-28T12:30:35;4.97;;;4.17;;
20476;SDS011;10397;50.948;11.092;2023-04-28T12:33:20;7.05;;;4.10;;
20476;SDS011;10397;50.948;11.092;2023-04-28T12:35:36;4.70;;;4.20;;
20476;SDS011;10397;50.948;11.092;2023-04-28T12:38:10;4.20;;;3.90;;
20476;SDS011;10397;50.948;11.092;2023-04-28T12:40:38;4.17;;;3.83;;
20476;SDS011;10397;50.948;11.092;2023-04-28T12:43:09;4.20;;;3.80;;
20476;SDS011;10397;50.948;11.092;2023-04-28T12:45:40;4.43;;;4.03;;
20476;SDS011;10397;50.948;11.092;2023-04-28T12:48:12;4.60;;;4.06;;
20476;SDS011;10397;50.948;11.092;2023-04-28T12:50:44;4.78;;;3.08;;
20476;SDS011;10397;50.948;11.092;2023-04-28T12:53:15;5.33;;;3.55;;
20476;SDS011;10397;50.948;11.092;2023-04-28T12:55:47;4.90;;;3.83;;
20476;SDS011;10397;50.948;11.092;2023-04-28T12:58:18;3.52;;;3.00;;
20476;SDS011;10397;50.948;11.092;2023-04-28T13:00:50;2.67;;;2.47;;
20476;SDS011;10397;50.948;11.092;2023-04-28T13:03:22;3.72;;;3.15;;
20476;SDS011;10397;50.948;11.092;2023-04-28T13:05:53;3.10;;;2.75;;
20476;SDS011;10397;50.948;11.092;2023-04-28T13:08:24;4.90;;;3.10;;
20476;SDS011;10397;50.948;11.092;2023-04-28T13:10:55;3.20;;;2.90;;
20476;SDS011;10397;50.948;11.092;2023-04-28T13:13:27;3.08;;;2.72;;
20476;SDS011;10397;50.948;11.092;2023-04-28T13:15:58;4.27;;;2.93;;
20476;SDS011;10397;50.948;11.092;2023-04-28T13:18:29;4.15;;;3.12;;
20476;SDS011;10397;50.948;11.092;2023-04-28T13:21:00;3.77;;;2.90;;
20476;SDS011;10397;50.948;11.092;2023-04-28T13:23:31;3.25;;;2.90;;
20476;SDS011;10397;50.948;11.092;2023-04-28T13:26:02;3.10;;;2.57;;
20476;SDS011;10397;50.948;11.092;2023-04-28T13:28:32;3.53;;;3.23;;
20476;SDS011;10397;50.948;11.092;2023-04-28T13:31:03;4.27;;;2.83;;
20476;SDS011;10397;50.948;11.092;2023-04-28T13:33:34;2.90;;;2.60;;
20476;SDS011;10397;50.948;11.092;2023-04-28T13:36:05;3.17;;;2.80;;
20476;SDS011;10397;50.948;11.092;2023-04-28T13:38:36;3.30;;;2.40;;
20476;SDS011;10397;50.948;11.092;2023-04-28T13:41:07;2.03;;;1.80;;
20476;SDS011;10397;50.948;11.092;2023-04-28T13:43:38;2.90;;;2.20;;
20476;SDS011;10397;50.948;11.092;2023-04-28T13:46:10;3.02;;;2.42;;
20476;SDS011;10397;50.948;11.092;2023-04-28T13:48:41;2.20;;;1.95;;
20476;SDS011;10397;50.948;11.092;2023-04-28T13:51:12;2.10;;;1.60;;
20476;SDS011;10397;50.948;11.092;2023-04-28T13:53:43;1.92;;;1.72;;
20476;SDS011;10397;50.948;11.092;2023-04-28T13:56:15;2.05;;;1.62;;
20476;SDS011;10397;50.948;11.092;2023-04-28T13:58:46;3.10;;;2.67;;
20476;SDS011;10397;50.948;11.092;2023-04-28T14:01:17;3.10;;;2.50;;
20476;SDS011;10397;50.948;11.092;2023-04-28T14:03:48;2.07;;;1.63;;
20476;SDS011;10397;50.948;11.092;2023-04-28T14:06:20;3.50;;;1.20;;
20476;SDS011;10397;50.948;11.092;2023-04-28T14:08:51;1.40;;;0.95;;
20476;SDS011;10397;50.948;11.092;2023-04-28T14:11:22;1.17;;;0.85;;
20476;SDS011;10397;50.948;11.092;2023-04-28T14:13:54;1.10;;;0.90;;
20476;SDS011;10397;50.948;11.092;2023-04-28T14:16:25;1.92;;;1.22;;
20476;SDS011;10397;50.948;11.092;2023-04-28T14:18:57;2.65;;;1.00;;
20476;SDS011;10397;50.948;11.092;2023-04-28T14:21:28;1.00;;;0.90;;
20476;SDS011;10397;50.948;11.092;2023-04-28T14:23:59;4.37;;;0.88;;
20476;SDS011;10397;50.948;11.092;2023-04-28T14:26:31;1.35;;;0.90;;
20476;SDS011;10397;50.948;11.092;2023-04-28T14:29:03;8.35;;;6.90;;
20476;SDS011;10397;50.948;11.092;2023-04-28T14:31:34;13.58;;;12.15;;
20476;SDS011;10397;50.948;11.092;2023-04-28T14:34:06;10.65;;;9.53;;
20476;SDS011;10397;50.948;11.092;2023-04-28T14:36:35;3.15;;;2.85;;
20476;SDS011;10397;50.948;11.092;2023-04-28T14:39:07;3.50;;;1.98;;
20476;SDS011;10397;50.948;11.092;2023-04-28T14:41:38;1.22;;;1.12;;
20476;SDS011;10397;50.948;11.092;2023-04-28T14:44:10;1.15;;;0.93;;
20476;SDS011;10397;50.948;11.092;2023-04-28T14:46:42;1.30;;;0.80;;
20476;SDS011;10397;50.948;11.092;2023-04-28T14:49:13;1.52;;;1.22;;
20476;SDS011;10397;50.948;11.092;2023-04-28T14:51:45;1.98;;;1.20;;
20476;SDS011;10397;50.948;11.092;2023-04-28T14:54:16;3.02;;;1.25;;
20476;SDS011;10397;50.948;11.092;2023-04-28T14:56:48;2.58;;;1.32;;
20476;SDS011;10397;50.948;11.092;2023-04-28T14:59:19;2.45;;;1.65;;
20476;SDS011;10397;50.948;11.092;2023-04-28T15:01:50;1.90;;;1.70;;
20476;SDS011;10397;50.948;11.092;2023-04-28T15:04:21;1.90;;;1.60;;
20476;SDS011;10397;50.948;11.092;2023-04-28T15:06:52;2.10;;;1.77;;
20476;SDS011;10397;50.948;11.092;2023-04-28T15:09:23;1.77;;;1.60;;
20476;SDS011;10397;50.948;11.092;2023-04-28T15:11:54;2.87;;;1.42;;